createdAt,value
2022-08-05T00:01:36.522Z,100.00
2022-08-05T00:04:18.164Z,100.00
2022-08-05T00:06:46.944Z,100.00
2022-08-05T00:09:15.830Z,100.00
2022-08-05T00:11:55.711Z,100.00
2022-08-05T00:14:27.467Z,100.00
2022-08-05T00:16:57.600Z,100.00
2022-08-05T00:19:33.512Z,100.00
2022-08-05T00:22:11.083Z,100.00
2022-08-05T00:24:42.172Z,100.00
2022-08-05T00:27:16.565Z,100.00
2022-08-05T00:29:45.083Z,100.00
2022-08-05T00:32:15.051Z,100.00
2022-08-05T00:35:04.095Z,100.00
2022-08-05T00:37:50.775Z,100.00
2022-08-05T00:40:27.930Z,100.00
2022-08-05T00:42:59.766Z,100.00
2022-08-05T00:45:38.325Z,100.00
2022-08-05T00:48:09.352Z,100.00
2022-08-05T00:50:38.897Z,100.00
2022-08-05T00:54:00.971Z,100.00
2022-08-05T00:55:58.510Z,100.00
2022-08-05T00:58:27.903Z,100.00
2022-08-05T01:00:56.387Z,100.00
2022-08-05T01:03:33.301Z,100.00
2022-08-05T01:06:03.962Z,100.00
2022-08-05T01:08:43.287Z,100.00
2022-08-05T01:11:22.535Z,100.00
2022-08-05T01:14:08.719Z,100.00
2022-08-05T01:16:44.514Z,100.00
2022-08-05T01:19:36.524Z,100.00
2022-08-05T01:22:28.135Z,100.00
2022-08-05T01:25:40.637Z,100.00
2022-08-05T01:28:27.173Z,100.00
2022-08-05T01:31:00.507Z,100.00
2022-08-05T01:33:36.185Z,100.00
2022-08-05T01:36:12.932Z,100.00
2022-08-05T01:38:46.731Z,100.00
2022-08-05T01:41:22.087Z,100.00
2022-08-05T01:43:52.498Z,100.00
2022-08-05T01:46:42.868Z,100.00
2022-08-05T01:49:23.949Z,100.00
2022-08-05T01:51:58.374Z,100.00
2022-08-05T01:54:31.510Z,100.00
2022-08-05T01:58:10.811Z,100.00
2022-08-05T01:59:53.791Z,100.00
2022-08-05T02:02:26.255Z,100.00
2022-08-05T02:05:03.131Z,100.00
2022-08-05T02:07:32.361Z,100.00
2022-08-05T02:10:03.487Z,100.00
2022-08-05T02:12:38.227Z,100.00
2022-08-05T02:15:12.475Z,100.00
2022-08-05T02:18:28.204Z,100.00
2022-08-05T02:20:44.200Z,100.00
2022-08-05T02:23:17.000Z,100.00
2022-08-05T02:25:49.092Z,100.00
2022-08-05T02:28:28.833Z,100.00
2022-08-05T02:31:07.497Z,100.00
2022-08-05T02:33:40.636Z,100.00
2022-08-05T02:36:13.755Z,100.00
2022-08-05T02:38:53.366Z,100.00
2022-08-05T02:41:28.801Z,100.00
2022-08-05T02:44:13.203Z,100.00
2022-08-05T02:46:58.880Z,100.00
2022-08-05T02:49:36.784Z,100.00
2022-08-05T02:52:08.979Z,100.00
2022-08-05T02:54:41.283Z,100.00
2022-08-05T02:58:10.788Z,100.00
2022-08-05T03:00:02.522Z,100.00
2022-08-05T03:02:37.421Z,100.00
2022-08-05T03:05:08.689Z,100.00
2022-08-05T03:08:00.893Z,100.00
2022-08-05T03:10:27.865Z,100.00
2022-08-05T03:15:24.463Z,100.00
2022-08-05T03:17:57.640Z,100.00
2022-08-05T03:20:26.454Z,100.00
2022-08-05T03:22:57.226Z,100.00
2022-08-05T03:25:33.666Z,100.00
2022-08-05T03:28:18.875Z,100.00
2022-08-05T03:30:49.422Z,100.00
2022-08-05T03:33:19.323Z,100.00
2022-08-05T03:35:48.248Z,100.00
2022-08-05T03:38:24.018Z,100.00
2022-08-05T03:41:08.172Z,100.00
2022-08-05T03:44:09.202Z,100.00
2022-08-05T03:46:29.816Z,100.00
2022-08-05T03:49:01.994Z,100.00
2022-08-05T03:52:38.841Z,100.00
2022-08-05T03:55:52.939Z,100.00
2022-08-05T03:57:42.323Z,100.00
2022-08-05T04:00:15.941Z,100.00
2022-08-05T04:02:57.943Z,100.00
2022-08-05T04:05:33.435Z,100.00
2022-08-05T04:08:03.637Z,100.00
2022-08-05T04:10:38.148Z,100.00
2022-08-05T04:13:08.299Z,100.00
2022-08-05T04:15:36.862Z,100.00
2022-08-05T04:18:07.280Z,100.00
2022-08-05T04:20:41.165Z,100.00
2022-08-05T04:23:12.661Z,100.00
2022-08-05T04:25:57.295Z,100.00
2022-08-05T04:28:30.804Z,100.00
2022-08-05T04:31:01.107Z,100.00
2022-08-05T04:33:54.876Z,100.00
2022-08-05T04:36:44.622Z,100.00
2022-08-05T04:39:07.798Z,100.00
2022-08-05T04:41:36.707Z,100.00
2022-08-05T04:44:08.952Z,100.00
2022-08-05T04:46:38.644Z,100.00
2022-08-05T04:49:12.151Z,100.00
2022-08-05T04:51:45.186Z,100.00
2022-08-05T04:54:14.666Z,100.00
2022-08-05T04:56:43.623Z,100.00
2022-08-05T04:59:21.854Z,100.00
2022-08-05T05:02:37.701Z,100.00
2022-08-05T05:04:50.479Z,100.00
2022-08-05T05:07:23.862Z,100.00
2022-08-05T05:09:57.562Z,100.00
2022-08-05T05:12:27.429Z,100.00
2022-08-05T05:14:55.801Z,100.00
2022-08-05T05:17:55.728Z,100.00
2022-08-05T05:20:13.746Z,100.00
2022-08-05T05:22:44.130Z,100.00
2022-08-05T05:25:16.897Z,100.00
2022-08-05T05:27:53.611Z,100.00
2022-08-05T05:30:30.841Z,100.00
2022-08-05T05:33:13.854Z,100.00
2022-08-05T05:35:47.474Z,100.00
2022-08-05T05:38:22.221Z,100.00
2022-08-05T05:40:55.053Z,100.00
2022-08-05T05:43:57.360Z,100.00
2022-08-05T05:46:17.333Z,100.00
2022-08-05T05:48:48.213Z,100.00
2022-08-05T05:51:21.855Z,100.00
2022-08-05T05:53:57.260Z,100.00
2022-08-05T05:56:33.003Z,100.00
2022-08-05T05:59:05.608Z,100.00
2022-08-05T06:01:38.010Z,100.00
2022-08-05T06:04:11.312Z,100.00
2022-08-05T06:06:41.961Z,100.00
2022-08-05T06:09:17.637Z,100.00
2022-08-05T06:12:02.006Z,100.00
2022-08-05T06:14:31.039Z,100.00
2022-08-05T06:17:01.873Z,100.00
2022-08-05T06:19:34.579Z,100.00
2022-08-05T06:22:04.553Z,100.00
2022-08-05T06:24:37.290Z,100.00
2022-08-05T06:27:05.946Z,100.00
2022-08-05T06:29:53.401Z,100.00
2022-08-05T06:32:34.139Z,100.00
2022-08-05T06:35:06.166Z,100.00
2022-08-05T06:37:57.846Z,100.00
2022-08-05T06:40:32.395Z,100.00
2022-08-05T06:43:01.010Z,100.00
2022-08-05T06:45:44.853Z,100.00
2022-08-05T06:48:50.345Z,100.00
2022-08-05T06:51:09.565Z,100.00
2022-08-05T06:53:39.113Z,100.00
2022-08-05T06:56:11.684Z,100.00
2022-08-05T06:58:54.325Z,100.00
2022-08-05T07:01:22.907Z,100.00
2022-08-05T07:03:51.168Z,100.00
2022-08-05T07:06:20.670Z,100.00
2022-08-05T07:08:51.653Z,100.00
2022-08-05T07:11:25.523Z,100.00
2022-08-05T07:14:20.569Z,100.00
2022-08-05T07:17:58.982Z,100.00
2022-08-05T07:20:32.311Z,100.00
2022-08-05T07:22:38.656Z,100.00
2022-08-05T07:25:22.995Z,100.00
2022-08-05T07:28:05.392Z,100.00
2022-08-05T07:30:38.816Z,100.00
2022-08-05T07:33:10.564Z,100.00
2022-08-05T07:36:03.736Z,100.00
2022-08-05T07:38:35.382Z,100.00
2022-08-05T07:42:08.234Z,100.00
2022-08-05T07:44:14.078Z,100.00
2022-08-05T07:46:48.645Z,100.00
2022-08-05T07:49:18.651Z,100.00
2022-08-05T07:51:53.405Z,100.00
2022-08-05T07:54:31.286Z,100.00
2022-08-05T07:57:17.644Z,100.00
2022-08-05T07:59:52.357Z,100.00
2022-08-05T08:02:30.921Z,100.00
2022-08-05T08:05:14.690Z,100.00
2022-08-05T08:07:59.817Z,100.00
2022-08-05T08:10:29.251Z,100.00
2022-08-05T08:12:58.775Z,100.00
2022-08-05T08:16:33.404Z,100.00
2022-08-05T08:18:20.770Z,100.00
2022-08-05T08:21:03.180Z,100.00
2022-08-05T08:24:02.441Z,100.00
2022-08-05T08:26:26.947Z,100.00
2022-08-05T08:28:59.713Z,100.00
2022-08-05T08:31:39.174Z,100.00
2022-08-05T08:34:09.748Z,100.00
2022-08-05T08:36:52.414Z,100.00
2022-08-05T08:39:24.824Z,100.00
2022-08-05T08:41:59.781Z,100.00
2022-08-05T08:45:20.552Z,100.00
2022-08-05T08:48:06.003Z,100.00
2022-08-05T08:50:31.930Z,100.00
2022-08-05T08:53:08.052Z,100.00
2022-08-05T08:56:04.083Z,100.00
2022-08-05T08:58:37.040Z,100.00
2022-08-05T09:01:16.612Z,100.00
2022-08-05T09:03:55.283Z,100.00
2022-08-05T09:06:29.657Z,100.00
2022-08-05T09:09:00.528Z,100.00
2022-08-05T09:11:53.485Z,100.00
2022-08-05T09:14:57.192Z,100.00
2022-08-05T09:17:08.191Z,100.00
2022-08-05T09:20:01.863Z,100.00
2022-08-05T09:22:32.080Z,100.00
2022-08-05T09:25:24.035Z,100.00
2022-08-05T09:28:04.212Z,100.00
2022-08-05T09:30:35.162Z,100.00
2022-08-05T09:33:05.762Z,100.00
2022-08-05T09:35:35.507Z,100.00
2022-08-05T09:38:17.146Z,100.00
2022-08-05T09:40:53.533Z,100.00
2022-08-05T09:43:40.244Z,100.00
2022-08-05T09:46:27.990Z,100.00
2022-08-05T09:49:08.319Z,100.00
2022-08-05T09:51:49.343Z,100.00
2022-08-05T09:54:21.141Z,100.00
2022-08-05T09:57:01.696Z,100.00
2022-08-05T09:59:34.834Z,100.00
2022-08-05T10:02:05.977Z,100.00
2022-08-05T10:04:41.013Z,100.00
2022-08-05T10:07:19.984Z,100.00
2022-08-05T10:10:14.006Z,100.00
2022-08-05T10:12:49.431Z,100.00
2022-08-05T10:15:23.795Z,100.00
2022-08-05T10:18:22.897Z,100.00
2022-08-05T10:20:53.272Z,100.00
2022-08-05T10:23:55.246Z,100.00
2022-08-05T10:26:14.533Z,100.00
2022-08-05T10:28:45.042Z,100.00
2022-08-05T10:33:01.487Z,100.00
2022-08-05T10:34:03.454Z,100.00
2022-08-05T10:36:31.961Z,100.00
2022-08-05T10:39:11.615Z,100.00
2022-08-05T10:41:50.461Z,100.00
2022-08-05T10:44:21.347Z,100.00
2022-08-05T10:46:54.197Z,100.00
2022-08-05T10:49:27.482Z,100.00
2022-08-05T10:52:05.039Z,100.00
2022-08-05T10:54:56.190Z,100.00
2022-08-05T10:57:31.678Z,100.00
2022-08-05T11:00:19.280Z,100.00
2022-08-05T11:03:23.634Z,100.00
2022-08-05T11:06:15.558Z,100.00
2022-08-05T11:09:24.440Z,100.00
2022-08-05T11:12:54.159Z,100.00
2022-08-05T11:16:00.755Z,100.00
2022-08-05T11:18:30.243Z,100.00
2022-08-05T11:21:02.617Z,100.00
2022-08-05T11:24:02.515Z,100.00
2022-08-05T11:26:32.890Z,100.00
2022-08-05T11:29:11.779Z,100.00
2022-08-05T11:31:57.571Z,100.00
2022-08-05T11:34:39.910Z,100.00
2022-08-05T11:38:28.839Z,100.00
2022-08-05T11:41:12.765Z,100.00
2022-08-05T11:44:00.960Z,100.00
2022-08-05T11:46:37.913Z,100.00
2022-08-05T11:49:25.993Z,100.00
2022-08-05T11:51:54.357Z,100.00
2022-08-05T11:54:33.271Z,100.00
2022-08-05T11:57:08.820Z,100.00
2022-08-05T11:59:52.927Z,100.00
2022-08-05T12:02:31.868Z,100.00
2022-08-05T12:05:07.910Z,100.00
2022-08-05T12:08:08.670Z,100.00
2022-08-05T12:10:45.081Z,100.00
2022-08-05T12:13:27.908Z,100.00
2022-08-05T12:16:14.135Z,100.00
2022-08-05T12:18:52.427Z,100.00
2022-08-05T12:21:24.033Z,100.00
2022-08-05T12:24:00.071Z,100.00
2022-08-05T12:26:33.354Z,100.00
2022-08-05T12:29:03.267Z,100.00
2022-08-05T12:31:43.738Z,100.00
2022-08-05T12:34:20.595Z,100.00
2022-08-05T12:36:53.269Z,100.00
2022-08-05T12:39:22.107Z,100.00
2022-08-05T12:41:57.987Z,100.00
2022-08-05T12:44:33.744Z,100.00
2022-08-05T12:47:03.739Z,100.00
2022-08-05T12:50:03.227Z,100.00
2022-08-05T12:52:38.688Z,100.00
2022-08-05T12:55:18.012Z,100.00
2022-08-05T12:58:49.664Z,100.00
2022-08-05T13:02:03.367Z,100.00
2022-08-05T13:03:41.737Z,100.00
2022-08-05T13:06:16.636Z,100.00
2022-08-05T13:08:52.386Z,100.00
2022-08-05T13:12:02.258Z,100.00
2022-08-05T13:14:19.401Z,100.00
2022-08-05T13:16:50.427Z,100.00
2022-08-05T13:19:18.880Z,100.00
2022-08-05T13:21:52.555Z,100.00
2022-08-05T13:24:27.629Z,100.00
2022-08-05T13:27:16.939Z,100.00
2022-08-05T13:30:31.479Z,100.00
2022-08-05T13:32:42.220Z,100.00
2022-08-05T13:35:15.433Z,100.00
2022-08-05T13:37:55.777Z,100.00
2022-08-05T13:40:47.916Z,100.00
2022-08-05T13:43:12.415Z,100.00
2022-08-05T13:45:43.256Z,100.00
2022-08-05T13:48:58.295Z,100.00
2022-08-05T13:51:06.509Z,100.00
2022-08-05T13:53:47.756Z,100.00
2022-08-05T13:56:18.881Z,100.00
2022-08-05T13:58:53.047Z,100.00
2022-08-05T14:01:36.245Z,100.00
2022-08-05T14:04:28.749Z,100.00
2022-08-05T14:06:58.872Z,100.00
2022-08-05T14:09:46.025Z,100.00
2022-08-05T14:12:18.253Z,100.00
2022-08-05T14:15:00.521Z,100.00
2022-08-05T14:17:34.112Z,100.00
2022-08-05T14:20:04.730Z,100.00
2022-08-05T14:22:35.836Z,100.00
2022-08-05T14:25:21.849Z,100.00
2022-08-05T14:27:50.948Z,100.00
2022-08-05T14:30:20.606Z,100.00
2022-08-05T14:32:49.766Z,100.00
2022-08-05T14:35:20.875Z,100.00
2022-08-05T14:37:55.375Z,100.00
2022-08-05T14:40:25.178Z,100.00
2022-08-05T14:42:53.228Z,100.00
2022-08-05T14:45:21.385Z,100.00
2022-08-05T14:48:03.441Z,100.00
2022-08-05T14:50:36.022Z,100.00
2022-08-05T14:53:08.025Z,100.00
2022-08-05T14:55:39.283Z,98.18
2022-08-05T14:58:11.241Z,75.31
2022-08-05T15:00:58.321Z,63.35
2022-08-05T15:03:33.168Z,62.41
2022-08-05T15:06:07.772Z,62.90
2022-08-05T15:08:59.118Z,62.45
2022-08-05T15:11:51.628Z,62.14
2022-08-05T15:14:34.996Z,57.91
2022-08-05T15:17:05.509Z,68.87
2022-08-05T15:19:49.170Z,80.74
2022-08-05T15:22:21.681Z,82.72
2022-08-05T15:24:55.566Z,99.21
2022-08-05T15:27:25.809Z,100.00
2022-08-05T15:29:56.776Z,100.00
2022-08-05T15:32:28.949Z,100.00
2022-08-05T15:34:57.244Z,100.00
2022-08-05T15:38:34.490Z,100.00
2022-08-05T15:40:59.096Z,100.00
2022-08-05T15:43:12.519Z,100.00
2022-08-05T15:46:00.733Z,100.00
2022-08-05T15:48:30.249Z,100.00
2022-08-05T15:51:03.282Z,100.00
2022-08-05T15:53:38.321Z,100.00
2022-08-05T15:56:19.950Z,100.00
2022-08-05T15:58:49.901Z,100.00
2022-08-05T16:01:19.074Z,100.00
2022-08-05T16:03:50.583Z,100.00
2022-08-05T16:06:20.540Z,100.00
2022-08-05T16:08:50.301Z,100.00
2022-08-05T16:11:20.940Z,100.00
2022-08-05T16:14:09.328Z,100.00
2022-08-05T16:16:37.435Z,100.00
2022-08-05T16:19:06.477Z,100.00
2022-08-05T16:22:00.687Z,100.00
2022-08-05T16:24:40.424Z,100.00
2022-08-05T16:27:10.326Z,100.00
2022-08-05T16:29:50.135Z,100.00
2022-08-05T16:32:28.467Z,100.00
2022-08-05T16:34:58.726Z,100.00
2022-08-05T16:38:15.212Z,100.00
2022-08-05T16:40:28.828Z,100.00
2022-08-05T16:42:57.731Z,100.00
2022-08-05T16:46:04.249Z,100.00
2022-08-05T16:48:25.887Z,100.00
2022-08-05T16:51:01.681Z,100.00
2022-08-05T16:53:32.523Z,100.00
2022-08-05T16:56:18.236Z,100.00
2022-08-05T16:58:47.804Z,100.00
2022-08-05T17:01:18.889Z,100.00
2022-08-05T17:03:47.286Z,100.00
2022-08-05T17:06:16.771Z,100.00
2022-08-05T17:08:53.133Z,100.00
2022-08-05T17:11:23.437Z,100.00
2022-08-05T17:14:00.662Z,100.00
2022-08-05T17:16:37.223Z,100.00
2022-08-05T17:19:07.491Z,100.00
2022-08-05T17:21:39.617Z,100.00
2022-08-05T17:24:30.301Z,100.00
2022-08-05T17:26:58.185Z,100.00
2022-08-05T17:29:34.043Z,100.00
2022-08-05T17:32:16.718Z,100.00
2022-08-05T17:34:48.036Z,100.00
2022-08-05T17:37:40.616Z,100.00
2022-08-05T17:40:10.617Z,100.00
2022-08-05T17:42:41.626Z,100.00
2022-08-05T17:45:20.454Z,100.00
2022-08-05T17:47:55.051Z,100.00
2022-08-05T17:50:29.523Z,100.00
2022-08-05T17:53:00.781Z,100.00
2022-08-05T17:55:37.588Z,100.00
2022-08-05T17:58:09.879Z,100.00
2022-08-05T18:00:40.896Z,100.00
2022-08-05T18:06:11.535Z,100.00
2022-08-05T18:08:44.615Z,100.00
2022-08-05T18:11:24.199Z,100.00
2022-08-05T18:14:04.347Z,100.00
2022-08-05T18:16:35.649Z,100.00
2022-08-05T18:19:22.792Z,100.00
2022-08-05T18:22:08.709Z,100.00
2022-08-05T18:24:39.944Z,100.00
2022-08-05T18:27:12.880Z,100.00
2022-08-05T18:29:51.983Z,100.00
2022-08-05T18:32:28.055Z,100.00
2022-08-05T18:34:59.411Z,100.00
2022-08-05T18:37:34.415Z,100.00
2022-08-05T18:40:57.580Z,100.00
2022-08-05T18:42:57.815Z,100.00
2022-08-05T18:45:25.966Z,100.00
2022-08-05T18:48:11.316Z,100.00
2022-08-05T18:52:02.506Z,100.00
2022-08-05T18:53:50.384Z,100.00
2022-08-05T18:56:21.794Z,100.00
2022-08-05T18:58:59.804Z,100.00
2022-08-05T19:01:33.413Z,100.00
2022-08-05T19:04:24.092Z,100.00
2022-08-05T19:06:53.949Z,100.00
2022-08-05T19:09:22.587Z,100.00
2022-08-05T19:12:00.152Z,100.00
2022-08-05T19:14:44.964Z,100.00
2022-08-05T19:17:18.370Z,100.00
2022-08-05T19:19:48.706Z,100.00
2022-08-05T19:22:18.450Z,100.00
2022-08-05T19:24:56.153Z,100.00
2022-08-05T19:27:30.527Z,100.00
2022-08-05T19:29:59.263Z,100.00
2022-08-05T19:32:27.907Z,100.00
2022-08-05T19:34:56.570Z,100.00
2022-08-05T19:37:34.893Z,100.00
2022-08-05T19:40:16.187Z,100.00
2022-08-05T19:43:00.784Z,100.00
2022-08-05T19:45:36.934Z,100.00
2022-08-05T19:48:06.332Z,100.00
2022-08-05T19:50:34.969Z,100.00
2022-08-05T19:53:09.433Z,100.00
2022-08-05T19:56:14.992Z,100.00
2022-08-05T19:58:28.409Z,100.00
2022-08-05T20:00:57.981Z,100.00
2022-08-05T20:03:27.345Z,100.00
2022-08-05T20:06:15.539Z,100.00
2022-08-05T20:08:47.579Z,100.00
2022-08-05T20:11:17.897Z,100.00
2022-08-05T20:13:58.172Z,100.00
2022-08-05T20:16:27.248Z,100.00
2022-08-05T20:18:55.826Z,100.00
2022-08-05T20:21:25.463Z,100.00
2022-08-05T20:23:54.870Z,100.00
2022-08-05T20:26:25.712Z,100.00
2022-08-05T20:28:56.243Z,100.00
2022-08-05T20:31:36.913Z,100.00
2022-08-05T20:34:11.599Z,100.00
2022-08-05T20:36:43.414Z,100.00
2022-08-05T20:39:16.343Z,100.00
2022-08-05T20:41:46.605Z,100.00
2022-08-05T20:44:29.731Z,100.00
2022-08-05T20:46:59.684Z,100.00
2022-08-05T20:49:27.797Z,100.00
2022-08-05T20:51:57.456Z,100.00
2022-08-05T20:54:59.805Z,100.00
2022-08-05T20:57:42.173Z,100.00
2022-08-05T21:00:21.009Z,100.00
2022-08-05T21:03:00.161Z,100.00
2022-08-05T21:05:48.326Z,100.00
2022-08-05T21:08:17.971Z,100.00
2022-08-05T21:10:48.872Z,100.00
2022-08-05T21:13:26.578Z,100.00
2022-08-05T21:16:06.294Z,100.00
2022-08-05T21:18:34.590Z,100.00
2022-08-05T21:21:03.974Z,100.00
2022-08-05T21:23:37.204Z,100.00
2022-08-05T21:26:14.482Z,100.00
2022-08-05T21:28:47.620Z,100.00
2022-08-05T21:31:18.813Z,100.00
2022-08-05T21:33:47.901Z,100.00
2022-08-05T21:36:27.444Z,100.00
2022-08-05T21:38:58.533Z,100.00
2022-08-05T21:41:32.946Z,100.00
2022-08-05T21:44:04.412Z,100.00
2022-08-05T21:46:34.309Z,100.00
2022-08-05T21:49:07.418Z,100.00
2022-08-05T21:52:21.847Z,100.00
2022-08-05T21:54:30.930Z,100.00
2022-08-05T21:57:31.312Z,100.00
2022-08-05T22:00:04.001Z,100.00
2022-08-05T22:02:34.835Z,100.00
2022-08-05T22:05:04.506Z,100.00
2022-08-05T22:07:39.757Z,100.00
2022-08-05T22:10:25.602Z,100.00
2022-08-05T22:12:58.741Z,100.00
2022-08-05T22:16:00.724Z,100.00
2022-08-05T22:18:16.007Z,100.00
2022-08-05T22:20:47.738Z,100.00
2022-08-05T22:24:02.452Z,100.00
2022-08-05T22:26:43.048Z,100.00
2022-08-05T22:29:26.836Z,100.00
2022-08-05T22:32:02.890Z,100.00
2022-08-05T22:34:31.197Z,100.00
2022-08-05T22:37:00.521Z,100.00
2022-08-05T22:39:33.870Z,100.00
2022-08-05T22:42:09.493Z,100.00
2022-08-05T22:44:42.537Z,100.00
2022-08-05T22:47:11.225Z,100.00
2022-08-05T22:50:21.721Z,100.00
2022-08-05T22:52:32.703Z,100.00
2022-08-05T22:55:04.394Z,100.00
2022-08-05T22:57:49.122Z,100.00
2022-08-05T23:00:20.965Z,100.00
2022-08-05T23:02:50.360Z,100.00
2022-08-05T23:05:19.207Z,100.00
2022-08-05T23:07:51.163Z,100.00
2022-08-05T23:10:19.935Z,100.00
2022-08-05T23:12:51.335Z,100.00
2022-08-05T23:15:21.291Z,100.00
2022-08-05T23:18:01.134Z,100.00
2022-08-05T23:20:32.331Z,100.00
2022-08-05T23:23:03.628Z,100.00
2022-08-05T23:25:53.094Z,100.00
2022-08-05T23:28:23.944Z,100.00
2022-08-05T23:30:56.358Z,100.00
2022-08-05T23:34:04.199Z,100.00
2022-08-05T23:36:40.125Z,100.00
2022-08-05T23:39:17.339Z,100.00
2022-08-05T23:41:52.225Z,100.00
2022-08-05T23:44:24.963Z,100.00
2022-08-05T23:46:57.631Z,100.00
2022-08-05T23:49:35.673Z,100.00
2022-08-05T23:52:25.341Z,100.00
2022-08-05T23:54:54.381Z,100.00
2022-08-05T23:57:22.538Z,100.00
